Time;durP1;ratioP1;P1;durP2;ratioP2;P2;SDS_P1;SDS_P2;PMS_P1;PMS_P2;Temp;Humidity;BMP_temperature;BMP_pressure;BME280_temperature;BME280_humidity;BME280_pressure;Samples;Min_cycle;Max_cycle;Signal;HPM_P1;HPM_P2
2021/08/16 00:02:14;;;;;;;4.60;3.80;;;18.90;99.90;;;;;;1990424;72;21090;-75
2021/08/16 00:04:40;;;;;;;5.37;4.10;;;18.90;99.90;;;;;;1990475;72;21084;-75
2021/08/16 00:07:06;;;;;;;7.30;3.87;;;18.90;99.90;;;;;;1990525;72;21083;-75
2021/08/16 00:09:32;;;;;;;5.60;3.45;;;18.90;99.90;;;;;;1990472;72;21080;-76
2021/08/16 00:11:59;;;;;;;6.45;4.10;;;18.90;99.90;;;;;;1990479;72;21080;-75
2021/08/16 00:14:25;;;;;;;6.12;3.75;;;19.00;99.90;;;;;;1975013;72;21066;-75
2021/08/16 00:16:51;;;;;;;3.58;3.27;;;19.10;99.90;;;;;;1990539;72;21140;-74
2021/08/16 00:19:17;;;;;;;5.87;3.42;;;19.10;99.90;;;;;;1990403;72;21095;-75
2021/08/16 00:21:43;;;;;;;5.62;4.08;;;19.00;99.90;;;;;;1990461;72;21074;-75
2021/08/16 00:24:09;;;;;;;4.58;3.55;;;19.00;99.90;;;;;;1990386;72;21035;-75
2021/08/16 00:26:35;;;;;;;4.00;3.47;;;19.00;99.90;;;;;;1990446;71;21165;-74
2021/08/16 00:29:01;;;;;;;9.88;3.67;;;19.00;99.90;;;;;;1990275;72;21070;-74
2021/08/16 00:31:28;;;;;;;10.70;4.05;;;19.10;99.90;;;;;;1990634;72;21110;-75
2021/08/16 00:33:54;;;;;;;4.97;3.83;;;19.20;99.90;;;;;;1990515;72;21067;-76
2021/08/16 00:36:20;;;;;;;5.83;3.65;;;19.20;99.90;;;;;;1990430;72;21161;-77
2021/08/16 00:38:46;;;;;;;3.85;3.45;;;19.20;99.90;;;;;;1990204;71;21051;-76
2021/08/16 00:41:12;;;;;;;6.37;3.90;;;19.30;99.90;;;;;;1990497;72;21055;-77
2021/08/16 00:43:38;;;;;;;6.28;3.67;;;19.20;99.90;;;;;;1985635;72;21043;-76
2021/08/16 00:46:04;;;;;;;4.25;3.45;;;19.20;99.90;;;;;;1990472;72;21096;-76
2021/08/16 00:48:30;;;;;;;3.58;3.17;;;19.30;99.90;;;;;;1990268;72;21063;-74
2021/08/16 00:50:57;;;;;;;5.45;3.22;;;19.30;99.90;;;;;;1990510;72;21161;-74
2021/08/16 00:53:23;;;;;;;4.30;3.52;;;19.40;99.90;;;;;;1990308;71;21032;-74
2021/08/16 00:55:49;;;;;;;4.85;3.20;;;19.40;99.90;;;;;;1990397;72;21071;-74
2021/08/16 00:58:15;;;;;;;6.40;3.67;;;19.30;99.90;;;;;;1990404;72;21063;-74
2021/08/16 01:00:42;;;;;;;6.85;3.90;;;19.30;99.90;;;;;;1990351;72;21177;-74
2021/08/16 01:03:09;;;;;;;4.58;3.83;;;19.20;99.90;;;;;;1990353;72;21132;-75
2021/08/16 01:05:35;;;;;;;6.92;4.08;;;19.30;99.90;;;;;;1990741;72;21099;-74
2021/08/16 01:08:01;;;;;;;6.05;3.47;;;19.30;99.90;;;;;;1990401;72;21063;-76
2021/08/16 01:10:30;;;;;;;5.17;3.65;;;19.40;99.90;;;;;;1990435;72;21095;-76
2021/08/16 01:12:55;;;;;;;4.40;3.47;;;19.50;99.90;;;;;;1989902;72;21496;-76
2021/08/16 01:15:21;;;;;;;12.47;3.40;;;19.50;99.90;;;;;;1990297;72;21459;-76
2021/08/16 01:17:47;;;;;;;4.10;3.15;;;19.50;99.90;;;;;;1990499;71;21499;-76
2021/08/16 01:20:13;;;;;;;4.30;3.25;;;19.50;99.90;;;;;;1990454;72;21492;-77
2021/08/16 01:22:39;;;;;;;5.22;3.90;;;19.50;99.90;;;;;;1990445;72;21480;-76
2021/08/16 01:25:05;;;;;;;5.55;3.70;;;19.50;99.90;;;;;;1990468;72;21592;-76
2021/08/16 01:27:32;;;;;;;10.18;3.42;;;19.40;99.90;;;;;;1990461;71;21538;-76
2021/08/16 01:29:58;;;;;;;3.75;3.35;;;19.40;99.90;;;;;;1990482;72;21055;-76
2021/08/16 01:32:24;;;;;;;5.78;3.47;;;19.40;99.90;;;;;;1990490;72;21106;-75
2021/08/16 01:34:50;;;;;;;4.62;3.45;;;19.50;99.90;;;;;;1989859;72;21070;-76
2021/08/16 01:37:16;;;;;;;9.43;4.30;;;19.50;99.90;;;;;;1989694;72;21125;-76
2021/08/16 01:39:43;;;;;;;5.67;3.90;;;19.50;99.90;;;;;;1990526;72;21176;-75
2021/08/16 01:42:09;;;;;;;4.55;3.58;;;19.40;99.90;;;;;;1990571;72;21081;-75
2021/08/16 01:44:35;;;;;;;8.18;3.85;;;19.40;99.90;;;;;;1990747;72;21122;-75
2021/08/16 01:47:01;;;;;;;4.40;3.10;;;19.40;99.90;;;;;;1990573;70;21092;-75
2021/08/16 01:49:27;;;;;;;6.08;4.62;;;19.30;99.90;;;;;;1990319;72;21074;-75
2021/08/16 01:51:53;;;;;;;9.75;4.33;;;19.20;99.90;;;;;;1990547;72;21098;-76
2021/08/16 01:54:19;;;;;;;6.08;3.90;;;19.20;99.90;;;;;;1990774;72;21059;-75
2021/08/16 01:56:45;;;;;;;6.08;4.15;;;19.10;99.90;;;;;;1990583;70;21109;-76
2021/08/16 01:59:12;;;;;;;5.50;3.90;;;19.20;99.90;;;;;;1990475;72;21039;-77
2021/08/16 02:01:38;;;;;;;11.65;3.98;;;19.20;99.90;;;;;;1990742;72;21428;-77
2021/08/16 02:04:04;;;;;;;6.37;4.37;;;19.10;99.90;;;;;;1990478;72;21517;-77
2021/08/16 02:06:30;;;;;;;10.25;4.47;;;19.20;99.90;;;;;;1990444;70;21447;-76
2021/08/16 02:08:56;;;;;;;6.97;4.08;;;19.20;99.90;;;;;;1990421;72;21517;-76
2021/08/16 02:11:22;;;;;;;6.58;4.12;;;19.10;99.90;;;;;;1990432;72;21440;-74
2021/08/16 02:13:48;;;;;;;7.08;4.78;;;19.20;99.90;;;;;;1990466;72;21620;-74
2021/08/16 02:16:14;;;;;;;5.42;4.22;;;19.20;99.90;;;;;;1990580;72;21562;-74
2021/08/16 02:18:41;;;;;;;6.87;4.42;;;19.20;99.90;;;;;;1990439;72;21070;-74
2021/08/16 02:21:07;;;;;;;6.95;4.42;;;19.20;99.90;;;;;;1990432;72;21036;-75
2021/08/16 02:23:33;;;;;;;7.87;4.90;;;19.20;99.90;;;;;;1990407;72;21067;-75
2021/08/16 02:25:59;;;;;;;10.82;5.05;;;19.30;99.90;;;;;;1990454;72;21059;-75
2021/08/16 02:28:25;;;;;;;8.30;4.90;;;19.40;99.90;;;;;;1990427;72;21110;-75
2021/08/16 02:30:51;;;;;;;6.28;4.45;;;19.50;99.90;;;;;;1990441;72;21066;-74
2021/08/16 02:33:17;;;;;;;10.15;4.50;;;19.40;99.90;;;;;;1990450;72;21137;-74
2021/08/16 02:35:43;;;;;;;5.70;5.00;;;19.40;99.90;;;;;;1990433;72;21059;-74
2021/08/16 02:38:10;;;;;;;9.30;5.30;;;19.40;99.90;;;;;;1990416;70;21063;-75
2021/08/16 02:40:36;;;;;;;7.10;5.05;;;19.50;99.90;;;;;;1990434;72;21116;-75
2021/08/16 02:43:02;;;;;;;7.00;4.85;;;19.50;99.90;;;;;;1990412;72;21071;-75
2021/08/16 02:45:28;;;;;;;10.70;5.05;;;19.50;99.90;;;;;;1990540;72;21162;-75
2021/08/16 02:47:54;;;;;;;7.60;4.83;;;19.50;99.90;;;;;;1990547;72;21072;-75
2021/08/16 02:50:20;;;;;;;9.20;5.05;;;19.40;99.90;;;;;;1990394;72;21100;-74
2021/08/16 02:52:46;;;;;;;9.03;5.05;;;19.50;99.90;;;;;;1990517;71;21084;-74
2021/08/16 02:55:12;;;;;;;10.78;4.85;;;19.60;99.90;;;;;;1990535;72;21088;-74
2021/08/16 02:57:39;;;;;;;5.35;4.45;;;19.60;99.90;;;;;;1990519;72;21080;-74
2021/08/16 03:00:05;;;;;;;4.85;4.35;;;19.50;99.90;;;;;;1990413;71;21168;-74
2021/08/16 03:02:31;;;;;;;8.05;5.33;;;19.50;99.90;;;;;;1990594;72;21121;-75
2021/08/16 03:04:57;;;;;;;7.85;5.15;;;19.50;99.90;;;;;;1990543;72;21121;-74
2021/08/16 03:07:23;;;;;;;6.20;4.50;;;19.50;99.90;;;;;;1990649;72;21089;-74
2021/08/16 03:09:49;;;;;;;7.35;4.83;;;19.40;99.90;;;;;;1990451;72;21055;-74
2021/08/16 03:12:16;;;;;;;7.35;5.15;;;19.40;99.90;;;;;;1990627;72;21139;-74
2021/08/16 03:14:42;;;;;;;9.58;4.90;;;19.30;99.90;;;;;;1990515;72;21063;-74
2021/08/16 03:17:09;;;;;;;8.05;5.00;;;19.40;99.90;;;;;;1990629;71;21096;-74
2021/08/16 03:19:35;;;;;;;7.67;4.42;;;19.40;99.90;;;;;;1990457;72;21109;-74
2021/08/16 03:22:01;;;;;;;9.28;3.80;;;19.40;99.90;;;;;;1990478;72;21140;-74
2021/08/16 03:24:27;;;;;;;8.73;4.00;;;19.40;99.90;;;;;;1990685;72;21153;-74
2021/08/16 03:26:53;;;;;;;7.05;4.25;;;19.30;99.90;;;;;;1993056;71;21068;-74
2021/08/16 03:29:19;;;;;;;7.58;4.78;;;19.30;99.90;;;;;;1993900;71;21076;-75
2021/08/16 03:31:45;;;;;;;5.55;4.22;;;19.30;99.90;;;;;;1975811;72;21051;-74
2021/08/16 03:34:11;;;;;;;7.62;4.35;;;19.30;99.90;;;;;;1987222;72;21084;-74
2021/08/16 03:36:38;;;;;;;5.75;3.85;;;19.40;99.90;;;;;;1983920;72;21161;-74
2021/08/16 03:39:04;;;;;;;5.12;3.87;;;19.40;99.90;;;;;;1990503;72;21102;-74
2021/08/16 03:41:30;;;;;;;7.62;4.17;;;19.30;99.90;;;;;;1990389;72;21055;-74
2021/08/16 03:43:56;;;;;;;5.33;3.98;;;19.20;99.90;;;;;;1990650;72;21153;-74
2021/08/16 03:46:22;;;;;;;5.20;4.15;;;19.30;99.90;;;;;;1990381;70;21063;-74
2021/08/16 03:48:48;;;;;;;5.97;4.45;;;19.40;99.90;;;;;;1990629;72;21516;-74
2021/08/16 03:51:14;;;;;;;4.67;3.87;;;19.40;99.90;;;;;;1990422;72;21156;-74
2021/08/16 03:53:41;;;;;;;6.08;4.12;;;19.50;99.90;;;;;;1990644;70;21116;-74
2021/08/16 03:56:10;;;;;;;4.47;3.75;;;19.50;99.90;;;;;;1990706;72;21519;-74
2021/08/16 03:58:35;;;;;;;5.20;3.70;;;19.60;99.90;;;;;;1990110;72;21209;-74
2021/08/16 04:01:01;;;;;;;5.67;3.77;;;19.60;99.90;;;;;;1990282;72;21153;-74
2021/08/16 04:03:27;;;;;;;10.58;3.87;;;19.80;99.90;;;;;;1990612;71;21125;-74
2021/08/16 04:05:53;;;;;;;5.17;3.70;;;19.90;99.90;;;;;;1990559;72;21060;-73
2021/08/16 04:08:19;;;;;;;9.40;3.62;;;20.00;99.90;;;;;;1990526;72;21059;-74
2021/08/16 04:10:46;;;;;;;8.13;4.08;;;20.00;99.90;;;;;;1990516;72;21036;-73
2021/08/16 04:13:12;;;;;;;6.45;3.98;;;19.90;99.90;;;;;;1990512;72;21059;-74
2021/08/16 04:15:38;;;;;;;7.95;4.08;;;19.70;99.90;;;;;;1990526;71;21059;-74
2021/08/16 04:18:04;;;;;;;10.38;3.50;;;19.70;99.90;;;;;;1990437;72;21059;-74
2021/08/16 04:20:30;;;;;;;5.90;4.00;;;19.70;99.90;;;;;;1990460;72;21016;-74
2021/08/16 04:22:56;;;;;;;8.48;4.33;;;19.60;99.90;;;;;;1990534;72;21103;-75
2021/08/16 04:25:22;;;;;;;4.70;4.15;;;19.50;99.90;;;;;;1991112;72;21472;-75
2021/08/16 04:27:54;;;;;;;5.78;4.67;;;19.50;99.90;;;;;;1990464;72;21478;-73
2021/08/16 04:30:20;;;;;;;5.00;4.33;;;19.40;99.90;;;;;;1990457;72;21020;-76
2021/08/16 04:32:46;;;;;;;12.82;4.92;;;19.50;99.90;;;;;;1990592;72;21076;-75
2021/08/16 04:35:12;;;;;;;10.00;5.22;;;19.40;99.90;;;;;;1990492;72;21043;-75
2021/08/16 04:37:38;;;;;;;6.90;5.12;;;19.40;99.90;;;;;;1990716;72;21059;-75
2021/08/16 04:40:04;;;;;;;7.58;4.50;;;19.30;99.90;;;;;;1990610;72;21076;-75
2021/08/16 04:42:30;;;;;;;5.35;4.22;;;19.30;99.90;;;;;;1990576;72;21096;-79
2021/08/16 04:44:57;;;;;;;7.87;4.50;;;19.30;99.90;;;;;;1990383;72;21117;-77
2021/08/16 04:47:23;;;;;;;6.78;4.20;;;19.20;99.90;;;;;;1990691;72;21051;-76
2021/08/16 04:49:49;;;;;;;6.10;4.67;;;19.20;99.90;;;;;;1990382;72;21047;-75
2021/08/16 04:52:16;;;;;;;5.92;4.72;;;19.20;99.90;;;;;;1990563;72;21134;-75
2021/08/16 04:54:42;;;;;;;6.20;4.75;;;19.20;99.90;;;;;;1990349;72;21145;-75
2021/08/16 04:57:08;;;;;;;6.90;4.85;;;19.20;99.90;;;;;;1990557;72;21080;-75
2021/08/16 04:59:34;;;;;;;6.25;4.75;;;19.30;99.90;;;;;;1990298;72;21020;-75
2021/08/16 05:02:00;;;;;;;5.92;4.95;;;19.20;99.90;;;;;;1990511;72;21051;-76
2021/08/16 05:04:26;;;;;;;10.23;5.40;;;19.30;99.90;;;;;;1990331;72;21051;-75
2021/08/16 05:06:52;;;;;;;7.85;5.12;;;19.40;99.90;;;;;;1990551;72;21084;-75
2021/08/16 05:09:19;;;;;;;7.80;5.03;;;19.50;99.90;;;;;;1990361;72;21047;-76
2021/08/16 05:11:45;;;;;;;9.08;5.80;;;19.60;99.90;;;;;;1990607;72;21092;-75
2021/08/16 05:14:11;;;;;;;8.35;5.35;;;19.70;99.90;;;;;;1990400;72;21051;-75
2021/08/16 05:16:37;;;;;;;6.92;5.28;;;19.80;99.90;;;;;;1990479;72;21095;-75
2021/08/16 05:19:03;;;;;;;8.40;4.78;;;20.00;99.90;;;;;;1990411;72;21051;-75
2021/08/16 05:21:29;;;;;;;8.73;5.05;;;20.30;99.90;;;;;;1990418;72;21106;-74
2021/08/16 05:23:56;;;;;;;7.42;4.75;;;20.50;99.90;;;;;;1990282;72;21106;-74
2021/08/16 05:26:22;;;;;;;10.98;4.78;;;20.70;99.90;;;;;;1990394;72;21058;-74
2021/08/16 05:28:48;;;;;;;7.45;4.70;;;20.80;99.90;;;;;;1990483;72;21083;-74
2021/08/16 05:31:14;;;;;;;14.65;5.17;;;20.90;99.90;;;;;;1990398;72;21012;-74
2021/08/16 05:33:40;;;;;;;14.20;4.80;;;20.90;99.90;;;;;;1989454;72;21120;-74
2021/08/16 05:36:06;;;;;;;6.05;4.33;;;21.00;99.90;;;;;;1990319;72;21055;-74
2021/08/16 05:38:33;;;;;;;9.05;4.35;;;21.00;99.90;;;;;;1990436;72;21145;-76
2021/08/16 05:40:59;;;;;;;9.25;4.53;;;21.10;99.90;;;;;;1990583;72;21055;-76
2021/08/16 05:43:25;;;;;;;12.95;4.05;;;21.10;99.90;;;;;;1990457;72;21128;-79
2021/08/16 05:45:51;;;;;;;11.78;4.10;;;21.00;99.90;;;;;;1990492;72;21153;-79
2021/08/16 05:48:17;;;;;;;6.42;3.90;;;21.00;99.90;;;;;;1990648;72;21024;-81
2021/08/16 05:50:45;;;;;;;9.48;3.87;;;21.00;99.90;;;;;;1990457;72;21530;-81
2021/08/16 05:53:11;;;;;;;4.92;4.22;;;21.00;99.90;;;;;;1990482;72;21075;-79
2021/08/16 05:55:37;;;;;;;15.60;3.83;;;21.00;99.90;;;;;;1990378;72;21468;-78
2021/08/16 05:58:03;;;;;;;7.45;4.10;;;21.00;99.90;;;;;;1990383;72;21108;-77
2021/08/16 06:00:29;;;;;;;7.30;4.55;;;21.00;99.90;;;;;;1980759;72;21556;-77
2021/08/16 06:02:56;;;;;;;5.20;3.92;;;21.00;99.90;;;;;;1990228;71;21558;-77
2021/08/16 06:05:22;;;;;;;4.70;3.62;;;21.00;99.90;;;;;;1990341;72;21469;-77
2021/08/16 06:07:48;;;;;;;10.78;4.28;;;21.00;99.90;;;;;;1982776;72;21174;-77
2021/08/16 06:10:14;;;;;;;6.37;3.55;;;21.00;99.90;;;;;;1961170;72;21056;-76
2021/08/16 06:12:40;;;;;;;8.33;3.62;;;21.00;99.90;;;;;;1985857;72;21129;-78
2021/08/16 06:15:08;;;;;;;6.53;3.70;;;21.10;99.90;;;;;;1989946;72;21175;-78
2021/08/16 06:17:37;;;;;;;5.87;3.45;;;21.10;99.90;;;;;;1931684;74;21149;-78
2021/08/16 06:20:02;;;;;;;8.63;3.75;;;21.10;99.90;;;;;;1901973;75;21112;-78
2021/08/16 06:22:29;;;;;;;7.45;3.95;;;21.00;99.90;;;;;;1897391;75;21075;-77
2021/08/16 06:24:55;;;;;;;4.58;3.20;;;21.10;99.90;;;;;;1894799;75;21113;-76
2021/08/16 06:27:22;;;;;;;5.05;3.25;;;21.00;99.90;;;;;;1886108;75;21044;-76
2021/08/16 06:29:48;;;;;;;4.40;3.17;;;21.00;99.90;;;;;;1990289;72;21063;-76
2021/08/16 06:32:14;;;;;;;4.83;3.12;;;21.10;99.90;;;;;;1977807;72;21064;-75
2021/08/16 06:34:42;;;;;;;7.33;3.58;;;21.10;99.90;;;;;;1988235;72;21072;-76
2021/08/16 06:37:08;;;;;;;4.12;2.92;;;21.30;99.90;;;;;;1975679;72;21555;-76
2021/08/16 06:39:34;;;;;;;3.65;3.02;;;21.20;99.90;;;;;;1990609;72;21589;-76
2021/08/16 06:42:00;;;;;;;8.05;3.27;;;21.20;99.90;;;;;;1990198;72;21088;-76
2021/08/16 06:44:26;;;;;;;5.83;3.37;;;21.20;99.90;;;;;;1990584;72;21189;-75
2021/08/16 06:46:52;;;;;;;9.00;3.15;;;21.10;99.90;;;;;;1990395;72;21067;-76
2021/08/16 06:49:19;;;;;;;6.55;3.10;;;21.10;99.90;;;;;;1990601;72;21088;-75
2021/08/16 06:51:45;;;;;;;6.78;3.58;;;21.10;99.90;;;;;;1990532;72;21121;-76
2021/08/16 06:54:11;;;;;;;5.78;3.33;;;21.10;99.90;;;;;;1990448;72;21032;-78
2021/08/16 06:56:37;;;;;;;5.65;2.87;;;21.20;99.90;;;;;;1990591;71;21095;-78
2021/08/16 06:59:03;;;;;;;4.85;2.87;;;21.40;99.90;;;;;;1990554;72;21153;-78
2021/08/16 07:01:29;;;;;;;5.40;3.40;;;21.50;99.90;;;;;;1990408;72;21518;-78
2021/08/16 07:03:55;;;;;;;8.58;3.42;;;21.70;99.90;;;;;;1990497;72;21532;-78
2021/08/16 07:06:22;;;;;;;7.50;3.60;;;21.80;99.90;;;;;;1990382;70;21440;-78
2021/08/16 07:08:48;;;;;;;4.87;3.12;;;21.90;99.90;;;;;;1989962;70;21496;-78
2021/08/16 07:11:14;;;;;;;8.63;2.92;;;22.00;99.90;;;;;;1990466;72;21489;-78
2021/08/16 07:13:40;;;;;;;3.80;3.08;;;22.00;99.90;;;;;;1990670;72;21157;-78
2021/08/16 07:16:06;;;;;;;4.55;2.87;;;22.10;99.90;;;;;;1990441;72;21158;-78
2021/08/16 07:18:35;;;;;;;3.72;2.83;;;22.10;99.90;;;;;;1990416;72;21039;-78
2021/08/16 07:21:01;;;;;;;5.75;2.75;;;22.10;99.90;;;;;;1990380;72;21082;-78
2021/08/16 07:23:27;;;;;;;10.25;2.77;;;22.10;99.90;;;;;;1990773;72;21543;-77
2021/08/16 07:25:54;;;;;;;6.03;3.10;;;22.00;99.90;;;;;;1990425;70;21478;-78
2021/08/16 07:28:20;;;;;;;5.90;3.00;;;22.00;99.90;;;;;;1990360;70;21564;-77
2021/08/16 07:30:46;;;;;;;5.72;3.00;;;21.90;99.90;;;;;;1990468;72;22009;-78
2021/08/16 07:33:12;;;;;;;6.35;2.95;;;21.70;99.90;;;;;;1990452;72;21572;-77
2021/08/16 07:35:38;;;;;;;5.15;2.77;;;21.50;99.90;;;;;;1990687;72;21524;-78
2021/08/16 07:38:04;;;;;;;4.03;2.75;;;21.50;99.90;;;;;;1990454;72;21535;-77
2021/08/16 07:40:30;;;;;;;6.87;3.17;;;21.50;99.90;;;;;;1990762;72;21582;-79
2021/08/16 07:42:57;;;;;;;8.50;2.85;;;21.60;99.90;;;;;;1991242;72;21118;-78
2021/08/16 07:45:23;;;;;;;4.72;2.77;;;21.60;99.90;;;;;;1991224;72;21055;-78
2021/08/16 07:47:51;;;;;;;4.42;2.90;;;21.80;99.90;;;;;;1991209;72;21063;-78
2021/08/16 07:50:16;;;;;;;4.78;2.80;;;21.90;99.90;;;;;;1991125;72;21135;-79
2021/08/16 07:52:43;;;;;;;6.12;3.30;;;22.00;99.90;;;;;;1991385;72;21117;-77
2021/08/16 07:55:10;;;;;;;4.65;2.40;;;22.10;99.90;;;;;;1956022;72;21059;-80
2021/08/16 07:57:36;;;;;;;5.53;2.92;;;22.20;99.90;;;;;;1991353;72;21196;-78
2021/08/16 08:00:04;;;;;;;2.98;2.58;;;22.30;99.90;;;;;;1990252;72;21166;-78
2021/08/16 08:02:30;;;;;;;4.33;2.60;;;22.40;99.90;;;;;;1993376;72;21182;-79
2021/08/16 08:04:56;;;;;;;5.42;2.83;;;22.40;99.90;;;;;;1994270;71;21064;-80
2021/08/16 08:07:22;;;;;;;4.45;2.87;;;22.40;99.90;;;;;;1994640;71;20997;-78
2021/08/16 08:09:48;;;;;;;4.75;2.95;;;22.40;99.90;;;;;;1991656;72;21044;-79
2021/08/16 08:12:14;;;;;;;4.15;2.77;;;22.50;99.90;;;;;;1990730;72;21084;-78
2021/08/16 08:14:40;;;;;;;3.77;2.42;;;22.70;99.90;;;;;;1990784;72;21063;-78
2021/08/16 08:17:07;;;;;;;6.58;2.02;;;22.70;99.90;;;;;;1990639;72;21114;-77
2021/08/16 08:19:33;;;;;;;5.95;2.17;;;22.80;99.90;;;;;;1990562;72;21066;-77
2021/08/16 08:21:59;;;;;;;9.35;2.45;;;22.80;99.90;;;;;;1990562;72;21024;-77
2021/08/16 08:24:25;;;;;;;3.77;2.67;;;22.90;99.90;;;;;;1990505;72;21066;-78
2021/08/16 08:26:51;;;;;;;4.17;2.52;;;22.90;99.90;;;;;;1990591;72;21071;-78
2021/08/16 08:29:17;;;;;;;2.42;2.08;;;23.00;99.90;;;;;;1990557;71;21078;-77
2021/08/16 08:31:45;;;;;;;5.70;2.70;;;23.00;99.90;;;;;;1990567;72;21032;-77
2021/08/16 08:34:11;;;;;;;7.85;2.90;;;23.00;99.90;;;;;;1990558;72;21074;-76
2021/08/16 08:36:37;;;;;;;3.87;2.80;;;22.80;99.90;;;;;;1990682;72;21106;-76
2021/08/16 08:39:03;;;;;;;3.55;2.47;;;22.90;99.90;;;;;;1990577;72;21160;-76
2021/08/16 08:41:30;;;;;;;4.65;2.60;;;22.60;99.90;;;;;;1990760;72;21140;-76
2021/08/16 08:43:56;;;;;;;2.92;2.60;;;22.60;99.90;;;;;;1990730;72;21143;-76
2021/08/16 08:46:22;;;;;;;7.75;2.80;;;23.10;99.90;;;;;;1989058;72;21088;-76
2021/08/16 08:48:48;;;;;;;3.58;2.65;;;23.30;99.90;;;;;;1989376;72;21096;-76
2021/08/16 08:51:15;;;;;;;6.37;2.80;;;23.30;99.90;;;;;;1990400;70;21080;-76
2021/08/16 08:53:41;;;;;;;6.47;3.00;;;23.40;99.90;;;;;;1990463;72;21128;-76
2021/08/16 08:56:07;;;;;;;6.53;3.22;;;23.70;99.90;;;;;;1990477;72;21221;-76
2021/08/16 08:58:33;;;;;;;4.97;3.00;;;24.10;99.90;;;;;;1990410;71;21071;-75
2021/08/16 09:00:59;;;;;;;6.50;3.50;;;24.20;99.90;;;;;;1985338;71;21036;-76
2021/08/16 09:03:25;;;;;;;5.05;3.15;;;23.90;99.90;;;;;;1990384;72;21066;-76
2021/08/16 09:05:51;;;;;;;3.67;2.87;;;24.20;99.90;;;;;;1990410;72;21255;-76
2021/08/16 09:08:17;;;;;;;3.77;2.62;;;24.30;99.90;;;;;;1990592;72;21076;-75
2021/08/16 09:10:44;;;;;;;3.67;2.40;;;23.90;99.90;;;;;;1990356;71;21133;-75
2021/08/16 09:13:10;;;;;;;5.10;2.70;;;23.80;99.90;;;;;;1990529;72;21051;-75
2021/08/16 09:15:36;;;;;;;4.28;2.95;;;23.60;99.90;;;;;;1988537;72;21164;-75
2021/08/16 09:18:02;;;;;;;5.30;3.00;;;23.40;99.90;;;;;;1990468;72;21157;-75
2021/08/16 09:20:30;;;;;;;7.20;2.98;;;23.10;99.90;;;;;;1990340;72;21063;-76
2021/08/16 09:22:57;;;;;;;9.33;2.85;;;23.10;99.90;;;;;;1990524;72;21567;-75
2021/08/16 09:25:23;;;;;;;8.40;2.62;;;22.80;99.90;;;;;;1990362;72;21079;-75
2021/08/16 09:27:49;;;;;;;5.97;3.08;;;22.80;99.90;;;;;;1980646;72;21125;-75
2021/08/16 09:30:15;;;;;;;5.22;3.15;;;22.90;99.90;;;;;;1990430;72;21059;-75
2021/08/16 09:32:43;;;;;;;5.67;3.20;;;22.90;99.90;;;;;;1990792;72;21468;-75
2021/08/16 09:35:12;;;;;;;7.55;3.67;;;22.90;99.90;;;;;;1990468;72;21031;-75
2021/08/16 09:37:38;;;;;;;8.30;3.37;;;23.00;99.90;;;;;;1989234;70;21166;-75
2021/08/16 09:40:04;;;;;;;4.92;3.25;;;23.20;99.90;;;;;;1988329;72;21480;-76
2021/08/16 09:42:31;;;;;;;6.58;3.47;;;23.30;99.90;;;;;;1990529;72;21573;-76
2021/08/16 09:44:57;;;;;;;7.62;4.05;;;23.50;99.90;;;;;;1990660;72;21510;-75
2021/08/16 09:47:24;;;;;;;7.00;3.52;;;23.60;99.90;;;;;;1972966;72;21047;-75
2021/08/16 09:49:50;;;;;;;5.40;3.52;;;23.50;99.90;;;;;;1955016;73;21063;-78
2021/08/16 09:52:16;;;;;;;5.45;3.60;;;23.40;99.90;;;;;;1954978;73;21062;-75
2021/08/16 09:54:42;;;;;;;6.15;3.40;;;23.20;99.90;;;;;;1955113;72;21039;-76
2021/08/16 09:57:08;;;;;;;8.98;3.58;;;23.10;99.90;;;;;;1954927;73;21036;-76
2021/08/16 09:59:34;;;;;;;5.33;3.30;;;23.10;99.90;;;;;;1954956;73;21498;-76
2021/08/16 10:02:00;;;;;;;5.65;3.85;;;22.90;99.90;;;;;;1955138;72;21548;-76
2021/08/16 10:04:27;;;;;;;5.67;3.40;;;22.60;99.90;;;;;;1954933;73;21627;-75
2021/08/16 10:06:53;;;;;;;7.75;3.27;;;22.50;99.90;;;;;;1955284;73;21484;-76
2021/08/16 10:09:21;;;;;;;6.22;3.92;;;22.40;99.90;;;;;;1954861;73;21079;-76
2021/08/16 10:11:48;;;;;;;5.58;3.60;;;22.50;99.90;;;;;;1954847;73;21083;-76
2021/08/16 10:14:14;;;;;;;4.70;3.35;;;22.80;99.90;;;;;;1955243;73;21070;-76
2021/08/16 10:16:40;;;;;;;5.75;3.58;;;22.80;99.90;;;;;;1955033;73;21066;-76
2021/08/16 10:19:06;;;;;;;5.97;3.50;;;22.60;99.90;;;;;;1955025;73;21542;-76
2021/08/16 10:21:32;;;;;;;10.43;3.17;;;22.60;99.90;;;;;;1955005;72;21132;-76
2021/08/16 10:23:58;;;;;;;5.87;3.20;;;22.50;99.90;;;;;;1955066;73;21063;-76
2021/08/16 10:26:25;;;;;;;9.75;2.95;;;22.60;99.90;;;;;;1955188;72;21195;-75
2021/08/16 10:28:51;;;;;;;3.72;3.15;;;22.70;99.90;;;;;;1954919;72;21082;-75
2021/08/16 10:31:17;;;;;;;6.70;3.20;;;22.80;99.90;;;;;;1955150;73;21560;-76
2021/08/16 10:33:43;;;;;;;4.15;2.80;;;22.90;99.90;;;;;;1954932;73;21038;-76
2021/08/16 10:36:10;;;;;;;14.65;3.10;;;22.70;99.90;;;;;;1955143;73;21067;-76
2021/08/16 10:38:36;;;;;;;5.67;3.12;;;22.60;99.90;;;;;;1954939;73;21032;-76
2021/08/16 10:41:05;;;;;;;11.08;3.50;;;22.60;99.90;;;;;;1955082;73;21066;-76
2021/08/16 10:43:30;;;;;;;8.90;3.02;;;22.70;99.90;;;;;;1954456;72;21515;-75
2021/08/16 10:45:56;;;;;;;4.28;2.72;;;22.70;99.90;;;;;;1955073;73;21487;-77
2021/08/16 10:48:23;;;;;;;4.10;3.22;;;22.70;99.90;;;;;;1955091;73;21547;-77
2021/08/16 10:50:49;;;;;;;25.35;3.17;;;22.70;99.90;;;;;;1950603;73;21188;-77
2021/08/16 10:53:15;;;;;;;6.28;3.15;;;22.90;99.90;;;;;;1955925;73;21131;-76
2021/08/16 10:55:43;;;;;;;4.80;2.87;;;23.10;99.90;;;;;;1954985;73;21063;-76
2021/08/16 10:58:09;;;;;;;5.37;2.87;;;23.10;99.90;;;;;;1956300;73;21087;-76
2021/08/16 11:00:35;;;;;;;4.50;2.92;;;23.30;99.90;;;;;;1955005;73;21063;-76
2021/08/16 11:03:01;;;;;;;9.75;3.12;;;23.30;99.90;;;;;;1954987;73;21036;-76
2021/08/16 11:05:28;;;;;;;9.05;3.33;;;23.70;99.90;;;;;;1954822;73;21102;-76
2021/08/16 11:07:54;;;;;;;20.23;3.52;;;23.70;99.90;;;;;;1954942;72;21124;-75
2021/08/16 11:10:20;;;;;;;9.48;3.10;;;23.40;99.90;;;;;;1955072;73;21071;-76
2021/08/16 11:12:46;;;;;;;5.28;2.98;;;23.20;99.90;;;;;;1954866;73;21060;-76
2021/08/16 11:15:12;;;;;;;4.87;2.83;;;22.90;99.90;;;;;;1955147;72;21075;-76
2021/08/16 11:17:39;;;;;;;6.37;2.83;;;22.80;99.90;;;;;;1954819;73;21136;-76
2021/08/16 11:20:05;;;;;;;5.30;3.22;;;22.70;99.90;;;;;;1955117;73;21132;-77
2021/08/16 11:22:31;;;;;;;5.90;2.80;;;22.80;99.90;;;;;;1954987;73;21070;-76
2021/08/16 11:24:57;;;;;;;5.17;2.80;;;22.70;99.90;;;;;;1955035;73;21087;-75
2021/08/16 11:27:23;;;;;;;5.72;3.15;;;22.80;99.90;;;;;;1955103;73;21062;-76
2021/08/16 11:29:49;;;;;;;4.80;2.95;;;22.90;99.90;;;;;;1955074;73;21066;-76
2021/08/16 11:32:15;;;;;;;8.93;2.55;;;23.20;99.90;;;;;;1954999;73;21506;-75
2021/08/16 11:34:42;;;;;;;8.90;2.90;;;23.60;99.90;;;;;;1955220;73;21479;-75
2021/08/16 11:37:08;;;;;;;4.42;2.83;;;23.90;99.90;;;;;;1955096;73;21539;-75
2021/08/16 11:39:34;;;;;;;4.22;2.87;;;23.70;99.90;;;;;;1955270;72;21541;-76
2021/08/16 11:42:00;;;;;;;8.48;2.67;;;23.40;99.90;;;;;;1954925;73;21063;-76
2021/08/16 11:44:26;;;;;;;2.95;2.20;;;23.20;99.90;;;;;;1955148;73;21136;-76
2021/08/16 11:46:52;;;;;;;3.77;2.90;;;23.00;99.90;;;;;;1954988;73;21031;-75
2021/08/16 11:49:18;;;;;;;9.03;2.67;;;23.00;99.90;;;;;;1955175;72;21055;-74
2021/08/16 11:51:44;;;;;;;5.15;2.70;;;22.90;99.90;;;;;;1955016;73;21066;-74
2021/08/16 11:54:12;;;;;;;7.67;2.72;;;23.00;99.90;;;;;;1955127;73;21137;-74
2021/08/16 11:56:39;;;;;;;8.58;3.08;;;23.40;99.90;;;;;;1955083;73;21055;-75
2021/08/16 11:59:05;;;;;;;7.00;2.90;;;24.10;99.90;;;;;;1955075;72;21039;-74
2021/08/16 12:01:31;;;;;;;5.37;2.30;;;24.90;99.90;;;;;;1955167;73;21066;-74
2021/08/16 12:03:57;;;;;;;8.75;3.02;;;25.50;99.90;;;;;;1955155;73;21114;-74
2021/08/16 12:06:23;;;;;;;6.20;2.83;;;25.40;99.90;;;;;;1955172;73;21141;-75
2021/08/16 12:08:50;;;;;;;3.50;2.37;;;24.50;99.90;;;;;;1952176;73;21054;-74
2021/08/16 12:11:20;;;;;;;6.53;2.60;;;24.30;99.90;;;;;;1939721;73;21128;-74
2021/08/16 12:13:43;;;;;;;6.17;2.42;;;24.30;99.90;;;;;;1953419;72;21193;-75
2021/08/16 12:16:10;;;;;;;4.67;2.65;;;24.20;99.90;;;;;;1955094;73;21066;-75
2021/08/16 12:18:36;;;;;;;8.68;2.90;;;24.10;99.90;;;;;;1947456;73;21132;-74
2021/08/16 12:21:02;;;;;;;5.10;2.45;;;24.40;99.90;;;;;;1950788;73;21075;-76
2021/08/16 12:23:28;;;;;;;4.08;2.55;;;24.10;99.90;;;;;;1956475;73;21140;-75
2021/08/16 12:25:54;;;;;;;6.15;2.33;;;23.90;99.90;;;;;;1941709;73;21044;-75
2021/08/16 12:28:20;;;;;;;4.08;2.50;;;23.90;99.90;;;;;;1944774;73;21067;-75
2021/08/16 12:30:47;;;;;;;11.83;2.90;;;24.20;99.90;;;;;;1955187;73;21132;-75
2021/08/16 12:33:13;;;;;;;8.05;2.92;;;24.80;99.90;;;;;;1948928;73;21161;-77
2021/08/16 12:35:39;;;;;;;5.00;2.67;;;25.20;99.90;;;;;;1943921;73;21141;-74
2021/08/16 12:38:05;;;;;;;4.45;2.70;;;25.00;99.90;;;;;;1955239;72;21448;-76
2021/08/16 12:40:33;;;;;;;3.42;2.62;;;24.70;99.90;;;;;;1955528;72;21487;-75